sensor_id;sensor_type;location;lat;lon;timestamp;temperature;humidity
34833;DHT22;55941;50.800;4.342;2023-04-09T00:01:41;7.80;99.90
34833;DHT22;55941;50.800;4.342;2023-04-09T00:04:07;7.80;99.90
34833;DHT22;55941;50.800;4.342;2023-04-09T00:06:33;7.80;99.90
34833;DHT22;55941;50.800;4.342;2023-04-09T00:08:58;7.80;99.90
34833;DHT22;55941;50.800;4.342;2023-04-09T00:11:24;7.70;99.90
34833;DHT22;55941;50.800;4.342;2023-04-09T00:13:50;7.70;99.90
34833;DHT22;55941;50.800;4.342;2023-04-09T00:16:16;7.70;99.90
34833;DHT22;55941;50.800;4.342;2023-04-09T00:18:41;7.60;99.90
34833;DHT22;55941;50.800;4.342;2023-04-09T00:21:07;7.50;99.90
34833;DHT22;55941;50.800;4.342;2023-04-09T00:23:33;7.60;99.90
34833;DHT22;55941;50.800;4.342;2023-04-09T00:25:59;7.60;99.90
34833;DHT22;55941;50.800;4.342;2023-04-09T00:28:25;7.50;99.90
34833;DHT22;55941;50.800;4.342;2023-04-09T00:30:51;7.50;99.90
34833;DHT22;55941;50.800;4.342;2023-04-09T00:33:16;7.50;99.90
34833;DHT22;55941;50.800;4.342;2023-04-09T00:35:43;7.50;99.90
34833;DHT22;55941;50.800;4.342;2023-04-09T00:38:09;7.50;99.90
34833;DHT22;55941;50.800;4.342;2023-04-09T00:40:34;7.50;99.90
34833;DHT22;55941;50.800;4.342;2023-04-09T00:43:00;7.60;99.90
34833;DHT22;55941;50.800;4.342;2023-04-09T00:45:26;7.50;99.90
34833;DHT22;55941;50.800;4.342;2023-04-09T00:47:52;7.50;99.90
34833;DHT22;55941;50.800;4.342;2023-04-09T00:50:18;7.40;99.90
34833;DHT22;55941;50.800;4.342;2023-04-09T00:52:44;7.50;99.90
34833;DHT22;55941;50.800;4.342;2023-04-09T00:55:11;7.50;99.90
34833;DHT22;55941;50.800;4.342;2023-04-09T00:57:37;7.40;99.90
34833;DHT22;55941;50.800;4.342;2023-04-09T01:00:03;7.50;99.90
34833;DHT22;55941;50.800;4.342;2023-04-09T01:02:32;7.50;99.90
34833;DHT22;55941;50.800;4.342;2023-04-09T01:04:58;7.50;99.90
34833;DHT22;55941;50.800;4.342;2023-04-09T01:15:51;7.40;99.90
34833;DHT22;55941;50.800;4.342;2023-04-09T01:18:28;7.40;99.90
34833;DHT22;55941;50.800;4.342;2023-04-09T01:21:09;7.30;99.90
34833;DHT22;55941;50.800;4.342;2023-04-09T01:27:07;7.30;99.90
34833;DHT22;55941;50.800;4.342;2023-04-09T01:29:38;7.30;99.90
34833;DHT22;55941;50.800;4.342;2023-04-09T01:32:05;7.40;99.90
34833;DHT22;55941;50.800;4.342;2023-04-09T01:34:32;7.30;99.90
34833;DHT22;55941;50.800;4.342;2023-04-09T01:36:59;7.40;99.90
34833;DHT22;55941;50.800;4.342;2023-04-09T01:39:27;7.40;99.90
34833;DHT22;55941;50.800;4.342;2023-04-09T01:41:54;7.30;99.90
34833;DHT22;55941;50.800;4.342;2023-04-09T01:44:20;7.30;99.90
34833;DHT22;55941;50.800;4.342;2023-04-09T01:46:48;7.30;99.90
34833;DHT22;55941;50.800;4.342;2023-04-09T01:49:15;7.30;99.90
34833;DHT22;55941;50.800;4.342;2023-04-09T01:51:42;7.20;99.90
34833;DHT22;55941;50.800;4.342;2023-04-09T01:54:08;7.20;99.90
34833;DHT22;55941;50.800;4.342;2023-04-09T01:56:44;7.20;99.90
34833;DHT22;55941;50.800;4.342;2023-04-09T01:59:10;7.20;99.90
34833;DHT22;55941;50.800;4.342;2023-04-09T02:01:47;7.20;99.90
34833;DHT22;55941;50.800;4.342;2023-04-09T02:04:27;7.20;99.90
34833;DHT22;55941;50.800;4.342;2023-04-09T02:09:58;7.10;99.90
34833;DHT22;55941;50.800;4.342;2023-04-09T02:12:25;7.10;99.90
34833;DHT22;55941;50.800;4.342;2023-04-09T02:14:52;7.00;99.90
34833;DHT22;55941;50.800;4.342;2023-04-09T02:17:19;6.90;99.90
34833;DHT22;55941;50.800;4.342;2023-04-09T02:19:46;7.00;99.90
34833;DHT22;55941;50.800;4.342;2023-04-09T02:22:13;6.90;99.90
34833;DHT22;55941;50.800;4.342;2023-04-09T02:24:39;6.90;99.90
34833;DHT22;55941;50.800;4.342;2023-04-09T02:27:06;6.90;99.90
34833;DHT22;55941;50.800;4.342;2023-04-09T02:29:32;7.00;99.90
34833;DHT22;55941;50.800;4.342;2023-04-09T02:31:58;6.90;99.90
34833;DHT22;55941;50.800;4.342;2023-04-09T02:34:24;7.00;99.90
34833;DHT22;55941;50.800;4.342;2023-04-09T02:36:50;7.00;99.90
34833;DHT22;55941;50.800;4.342;2023-04-09T02:39:16;7.00;99.90
34833;DHT22;55941;50.800;4.342;2023-04-09T02:41:41;6.90;99.90
34833;DHT22;55941;50.800;4.342;2023-04-09T02:44:07;6.90;99.90
34833;DHT22;55941;50.800;4.342;2023-04-09T02:46:33;6.90;99.90
34833;DHT22;55941;50.800;4.342;2023-04-09T02:48:58;6.90;99.90
34833;DHT22;55941;50.800;4.342;2023-04-09T02:51:24;6.90;99.90
34833;DHT22;55941;50.800;4.342;2023-04-09T02:53:50;6.90;99.90
34833;DHT22;55941;50.800;4.342;2023-04-09T02:56:15;6.90;99.90
34833;DHT22;55941;50.800;4.342;2023-04-09T02:58:41;6.80;99.90
34833;DHT22;55941;50.800;4.342;2023-04-09T03:01:07;6.70;99.90
34833;DHT22;55941;50.800;4.342;2023-04-09T03:03:32;6.90;99.90
34833;DHT22;55941;50.800;4.342;2023-04-09T03:05:58;6.80;99.90
34833;DHT22;55941;50.800;4.342;2023-04-09T03:08:23;6.80;99.90
34833;DHT22;55941;50.800;4.342;2023-04-09T03:10:49;6.80;99.90
34833;DHT22;55941;50.800;4.342;2023-04-09T03:13:15;6.90;99.90
34833;DHT22;55941;50.800;4.342;2023-04-09T03:15:40;6.70;99.90
34833;DHT22;55941;50.800;4.342;2023-04-09T03:18:06;6.70;99.90
34833;DHT22;55941;50.800;4.342;2023-04-09T03:20:32;6.70;99.90
34833;DHT22;55941;50.800;4.342;2023-04-09T03:22:58;6.70;99.90
34833;DHT22;55941;50.800;4.342;2023-04-09T03:25:24;6.60;99.90
34833;DHT22;55941;50.800;4.342;2023-04-09T03:27:49;6.70;99.90
34833;DHT22;55941;50.800;4.342;2023-04-09T03:30:15;6.70;99.90
34833;DHT22;55941;50.800;4.342;2023-04-09T03:32:40;6.60;99.90
34833;DHT22;55941;50.800;4.342;2023-04-09T03:35:06;6.70;99.90
34833;DHT22;55941;50.800;4.342;2023-04-09T03:37:32;6.60;99.90
34833;DHT22;55941;50.800;4.342;2023-04-09T03:39:58;6.60;99.90
34833;DHT22;55941;50.800;4.342;2023-04-09T03:42:23;6.60;99.90
34833;DHT22;55941;50.800;4.342;2023-04-09T03:44:52;6.70;99.90
34833;DHT22;55941;50.800;4.342;2023-04-09T03:47:18;6.60;99.90
34833;DHT22;55941;50.800;4.342;2023-04-09T03:49:43;6.60;99.90
34833;DHT22;55941;50.800;4.342;2023-04-09T03:52:09;6.60;99.90
34833;DHT22;55941;50.800;4.342;2023-04-09T03:54:35;6.50;99.90
34833;DHT22;55941;50.800;4.342;2023-04-09T03:57:00;6.50;99.90
34833;DHT22;55941;50.800;4.342;2023-04-09T03:59:28;6.70;99.90
34833;DHT22;55941;50.800;4.342;2023-04-09T04:01:53;6.60;99.90
34833;DHT22;55941;50.800;4.342;2023-04-09T04:04:19;6.60;99.90
34833;DHT22;55941;50.800;4.342;2023-04-09T04:06:45;6.70;99.90
34833;DHT22;55941;50.800;4.342;2023-04-09T04:09:10;6.70;99.90
34833;DHT22;55941;50.800;4.342;2023-04-09T04:11:36;6.70;99.90
34833;DHT22;55941;50.800;4.342;2023-04-09T04:14:01;6.60;99.90
34833;DHT22;55941;50.800;4.342;2023-04-09T04:16:27;6.60;99.90
34833;DHT22;55941;50.800;4.342;2023-04-09T04:18:52;6.70;99.90
34833;DHT22;55941;50.800;4.342;2023-04-09T04:21:18;6.70;99.90
34833;DHT22;55941;50.800;4.342;2023-04-09T04:23:44;6.80;99.90
34833;DHT22;55941;50.800;4.342;2023-04-09T04:26:10;6.80;99.90
34833;DHT22;55941;50.800;4.342;2023-04-09T04:28:37;6.80;99.90
34833;DHT22;55941;50.800;4.342;2023-04-09T04:31:07;6.70;99.90
34833;DHT22;55941;50.800;4.342;2023-04-09T04:33:33;6.70;99.90
34833;DHT22;55941;50.800;4.342;2023-04-09T04:36:09;6.70;99.90
34833;DHT22;55941;50.800;4.342;2023-04-09T04:38:36;6.80;99.90
34833;DHT22;55941;50.800;4.342;2023-04-09T04:41:02;6.80;99.90
34833;DHT22;55941;50.800;4.342;2023-04-09T04:43:28;6.80;99.90
34833;DHT22;55941;50.800;4.342;2023-04-09T04:45:54;6.80;99.90
34833;DHT22;55941;50.800;4.342;2023-04-09T04:48:20;6.90;99.90
34833;DHT22;55941;50.800;4.342;2023-04-09T04:50:46;6.90;99.90
34833;DHT22;55941;50.800;4.342;2023-04-09T04:53:11;6.80;99.90
34833;DHT22;55941;50.800;4.342;2023-04-09T04:55:37;6.90;99.90
34833;DHT22;55941;50.800;4.342;2023-04-09T04:58:06;6.80;99.90
34833;DHT22;55941;50.800;4.342;2023-04-09T05:00:32;6.90;99.90
34833;DHT22;55941;50.800;4.342;2023-04-09T05:02:57;6.90;99.90
34833;DHT22;55941;50.800;4.342;2023-04-09T05:05:23;6.80;99.90
34833;DHT22;55941;50.800;4.342;2023-04-09T05:07:48;6.80;99.90
34833;DHT22;55941;50.800;4.342;2023-04-09T05:10:14;6.90;99.90
34833;DHT22;55941;50.800;4.342;2023-04-09T05:12:40;6.80;99.90
34833;DHT22;55941;50.800;4.342;2023-04-09T05:15:06;6.80;99.90
34833;DHT22;55941;50.800;4.342;2023-04-09T05:17:32;6.80;99.90
34833;DHT22;55941;50.800;4.342;2023-04-09T05:19:57;6.90;99.90
34833;DHT22;55941;50.800;4.342;2023-04-09T05:22:23;6.90;99.90
34833;DHT22;55941;50.800;4.342;2023-04-09T05:24:49;6.80;99.90
34833;DHT22;55941;50.800;4.342;2023-04-09T05:27:15;6.90;99.90
34833;DHT22;55941;50.800;4.342;2023-04-09T05:29:40;6.90;99.90
34833;DHT22;55941;50.800;4.342;2023-04-09T05:32:06;6.90;99.90
34833;DHT22;55941;50.800;4.342;2023-04-09T05:34:34;6.90;99.90
34833;DHT22;55941;50.800;4.342;2023-04-09T05:36:59;6.90;99.90
34833;DHT22;55941;50.800;4.342;2023-04-09T05:39:25;7.00;99.90
34833;DHT22;55941;50.800;4.342;2023-04-09T05:41:51;7.00;99.90
34833;DHT22;55941;50.800;4.342;2023-04-09T05:44:17;7.00;99.90
34833;DHT22;55941;50.800;4.342;2023-04-09T05:46:43;7.00;99.90
34833;DHT22;55941;50.800;4.342;2023-04-09T05:49:08;7.10;99.90
34833;DHT22;55941;50.800;4.342;2023-04-09T05:51:35;7.00;99.90
34833;DHT22;55941;50.800;4.342;2023-04-09T05:54:02;7.10;99.90
34833;DHT22;55941;50.800;4.342;2023-04-09T05:56:28;7.10;99.90
34833;DHT22;55941;50.800;4.342;2023-04-09T05:58:54;7.10;99.90
34833;DHT22;55941;50.800;4.342;2023-04-09T06:01:20;7.10;99.90
34833;DHT22;55941;50.800;4.342;2023-04-09T06:03:46;7.20;99.90
34833;DHT22;55941;50.800;4.342;2023-04-09T06:06:12;7.30;99.90
34833;DHT22;55941;50.800;4.342;2023-04-09T06:08:38;7.30;99.90
34833;DHT22;55941;50.800;4.342;2023-04-09T06:11:07;7.30;99.90
34833;DHT22;55941;50.800;4.342;2023-04-09T06:13:33;7.30;99.90
34833;DHT22;55941;50.800;4.342;2023-04-09T06:15:59;7.40;99.90
34833;DHT22;55941;50.800;4.342;2023-04-09T06:18:24;7.50;99.90
34833;DHT22;55941;50.800;4.342;2023-04-09T06:21:00;7.50;99.90
34833;DHT22;55941;50.800;4.342;2023-04-09T06:23:26;7.50;99.90
34833;DHT22;55941;50.800;4.342;2023-04-09T06:25:52;7.60;99.90
34833;DHT22;55941;50.800;4.342;2023-04-09T06:28:18;7.60;99.90
34833;DHT22;55941;50.800;4.342;2023-04-09T06:30:43;7.50;99.90
34833;DHT22;55941;50.800;4.342;2023-04-09T06:33:09;7.60;99.90
34833;DHT22;55941;50.800;4.342;2023-04-09T06:35:35;7.70;99.90
34833;DHT22;55941;50.800;4.342;2023-04-09T06:38:01;7.80;99.90
34833;DHT22;55941;50.800;4.342;2023-04-09T06:40:26;7.80;99.90
34833;DHT22;55941;50.800;4.342;2023-04-09T06:42:52;8.00;99.90
34833;DHT22;55941;50.800;4.342;2023-04-09T06:45:18;8.00;99.90
34833;DHT22;55941;50.800;4.342;2023-04-09T06:47:43;8.10;99.90
34833;DHT22;55941;50.800;4.342;2023-04-09T06:50:09;8.10;99.90
34833;DHT22;55941;50.800;4.342;2023-04-09T06:52:35;8.30;99.90
34833;DHT22;55941;50.800;4.342;2023-04-09T06:55:01;8.40;99.90
34833;DHT22;55941;50.800;4.342;2023-04-09T06:57:26;8.40;99.90
34833;DHT22;55941;50.800;4.342;2023-04-09T06:59:52;8.50;99.90
34833;DHT22;55941;50.800;4.342;2023-04-09T07:02:17;8.70;99.90
34833;DHT22;55941;50.800;4.342;2023-04-09T07:04:43;8.70;99.90
34833;DHT22;55941;50.800;4.342;2023-04-09T07:07:09;8.70;99.90
34833;DHT22;55941;50.800;4.342;2023-04-09T07:09:34;8.80;99.90
34833;DHT22;55941;50.800;4.342;2023-04-09T07:12:00;9.10;99.90
34833;DHT22;55941;50.800;4.342;2023-04-09T07:14:26;9.10;99.90
34833;DHT22;55941;50.800;4.342;2023-04-09T07:16:52;9.20;99.90
34833;DHT22;55941;50.800;4.342;2023-04-09T07:19:17;9.30;99.90
34833;DHT22;55941;50.800;4.342;2023-04-09T07:21:43;9.30;99.90
34833;DHT22;55941;50.800;4.342;2023-04-09T07:24:08;9.40;99.90
34833;DHT22;55941;50.800;4.342;2023-04-09T07:26:34;9.30;99.90
34833;DHT22;55941;50.800;4.342;2023-04-09T07:29:00;9.50;99.90
34833;DHT22;55941;50.800;4.342;2023-04-09T07:31:26;9.70;99.90
34833;DHT22;55941;50.800;4.342;2023-04-09T07:33:52;9.80;99.90
34833;DHT22;55941;50.800;4.342;2023-04-09T07:36:17;10.00;99.90
34833;DHT22;55941;50.800;4.342;2023-04-09T07:38:43;10.20;99.90
34833;DHT22;55941;50.800;4.342;2023-04-09T07:41:12;10.30;99.90
34833;DHT22;55941;50.800;4.342;2023-04-09T07:43:38;10.20;99.90
34833;DHT22;55941;50.800;4.342;2023-04-09T07:46:03;10.20;99.90
34833;DHT22;55941;50.800;4.342;2023-04-09T07:48:29;10.20;99.90
34833;DHT22;55941;50.800;4.342;2023-04-09T07:50:55;10.20;99.90
34833;DHT22;55941;50.800;4.342;2023-04-09T07:53:21;10.40;99.90
34833;DHT22;55941;50.800;4.342;2023-04-09T07:55:46;10.50;99.90
34833;DHT22;55941;50.800;4.342;2023-04-09T07:58:12;10.60;99.90
34833;DHT22;55941;50.800;4.342;2023-04-09T08:00:38;10.90;99.90
34833;DHT22;55941;50.800;4.342;2023-04-09T08:03:03;10.80;99.90
34833;DHT22;55941;50.800;4.342;2023-04-09T08:05:29;11.00;99.90
34833;DHT22;55941;50.800;4.342;2023-04-09T08:07:55;11.00;99.90
34833;DHT22;55941;50.800;4.342;2023-04-09T08:10:20;11.10;99.90
34833;DHT22;55941;50.800;4.342;2023-04-09T08:12:47;11.10;99.90
34833;DHT22;55941;50.800;4.342;2023-04-09T08:15:13;11.20;99.90
34833;DHT22;55941;50.800;4.342;2023-04-09T08:17:39;11.10;99.90
34833;DHT22;55941;50.800;4.342;2023-04-09T08:20:05;11.20;99.90
34833;DHT22;55941;50.800;4.342;2023-04-09T08:22:31;11.30;99.90
34833;DHT22;55941;50.800;4.342;2023-04-09T08:24:56;11.60;99.90
34833;DHT22;55941;50.800;4.342;2023-04-09T08:27:23;11.60;99.90
34833;DHT22;55941;50.800;4.342;2023-04-09T08:29:49;11.70;99.90
34833;DHT22;55941;50.800;4.342;2023-04-09T08:32:15;11.80;99.90
34833;DHT22;55941;50.800;4.342;2023-04-09T08:34:41;11.90;99.90
34833;DHT22;55941;50.800;4.342;2023-04-09T08:37:07;12.00;99.90
34833;DHT22;55941;50.800;4.342;2023-04-09T08:39:33;12.10;99.90
34833;DHT22;55941;50.800;4.342;2023-04-09T08:41:59;12.20;99.90
34833;DHT22;55941;50.800;4.342;2023-04-09T08:44:28;12.30;99.90
34833;DHT22;55941;50.800;4.342;2023-04-09T08:46:54;12.30;99.90
34833;DHT22;55941;50.800;4.342;2023-04-09T08:49:20;12.50;99.90
34833;DHT22;55941;50.800;4.342;2023-04-09T08:51:47;12.40;99.90
34833;DHT22;55941;50.800;4.342;2023-04-09T08:54:17;12.50;99.90
34833;DHT22;55941;50.800;4.342;2023-04-09T08:56:45;12.50;99.90
34833;DHT22;55941;50.800;4.342;2023-04-09T08:59:14;12.50;99.90
34833;DHT22;55941;50.800;4.342;2023-04-09T09:01:40;12.50;99.90
34833;DHT22;55941;50.800;4.342;2023-04-09T09:04:07;12.60;99.90
34833;DHT22;55941;50.800;4.342;2023-04-09T09:06:39;12.70;99.90
34833;DHT22;55941;50.800;4.342;2023-04-09T09:09:08;12.60;99.90
34833;DHT22;55941;50.800;4.342;2023-04-09T09:11:36;12.50;99.90
34833;DHT22;55941;50.800;4.342;2023-04-09T09:14:06;12.60;99.90
34833;DHT22;55941;50.800;4.342;2023-04-09T09:16:34;12.70;99.90
34833;DHT22;55941;50.800;4.342;2023-04-09T09:19:04;12.90;99.90
34833;DHT22;55941;50.800;4.342;2023-04-09T09:21:30;13.00;99.90
34833;DHT22;55941;50.800;4.342;2023-04-09T09:23:56;13.10;99.90
34833;DHT22;55941;50.800;4.342;2023-04-09T09:26:25;12.90;99.90
34833;DHT22;55941;50.800;4.342;2023-04-09T09:28:52;13.00;99.90
34833;DHT22;55941;50.800;4.342;2023-04-09T09:31:19;13.00;99.90
34833;DHT22;55941;50.800;4.342;2023-04-09T09:33:46;13.10;99.90
34833;DHT22;55941;50.800;4.342;2023-04-09T09:36:14;13.10;99.90
34833;DHT22;55941;50.800;4.342;2023-04-09T09:38:58;13.20;99.90
34833;DHT22;55941;50.800;4.342;2023-04-09T09:41:26;13.40;99.90
34833;DHT22;55941;50.800;4.342;2023-04-09T09:43:52;13.50;99.90
34833;DHT22;55941;50.800;4.342;2023-04-09T09:46:20;13.40;99.90
34833;DHT22;55941;50.800;4.342;2023-04-09T09:48:46;13.40;99.90
34833;DHT22;55941;50.800;4.342;2023-04-09T09:51:13;13.60;99.90
34833;DHT22;55941;50.800;4.342;2023-04-09T09:53:44;13.70;99.90
34833;DHT22;55941;50.800;4.342;2023-04-09T09:56:17;13.70;99.90
34833;DHT22;55941;50.800;4.342;2023-04-09T09:58:44;13.70;99.90
34833;DHT22;55941;50.800;4.342;2023-04-09T10:01:13;13.70;99.90
34833;DHT22;55941;50.800;4.342;2023-04-09T10:03:43;13.80;99.90
34833;DHT22;55941;50.800;4.342;2023-04-09T10:06:11;13.80;99.90
34833;DHT22;55941;50.800;4.342;2023-04-09T10:08:40;13.90;99.90
34833;DHT22;55941;50.800;4.342;2023-04-09T10:11:06;13.90;99.90
34833;DHT22;55941;50.800;4.342;2023-04-09T10:13:42;13.80;99.90
34833;DHT22;55941;50.800;4.342;2023-04-09T10:16:10;13.90;99.90
34833;DHT22;55941;50.800;4.342;2023-04-09T10:18:36;14.00;99.90
34833;DHT22;55941;50.800;4.342;2023-04-09T10:21:13;14.10;99.90
34833;DHT22;55941;50.800;4.342;2023-04-09T10:23:43;14.30;99.90
34833;DHT22;55941;50.800;4.342;2023-04-09T10:26:10;14.40;99.90
34833;DHT22;55941;50.800;4.342;2023-04-09T10:28:38;14.40;99.90
34833;DHT22;55941;50.800;4.342;2023-04-09T10:31:07;14.40;99.90
34833;DHT22;55941;50.800;4.342;2023-04-09T10:33:35;14.50;99.90
34833;DHT22;55941;50.800;4.342;2023-04-09T10:36:09;14.50;99.90
34833;DHT22;55941;50.800;4.342;2023-04-09T10:38:43;14.60;99.90
34833;DHT22;55941;50.800;4.342;2023-04-09T10:41:21;14.70;99.90
34833;DHT22;55941;50.800;4.342;2023-04-09T10:43:47;15.00;99.90
34833;DHT22;55941;50.800;4.342;2023-04-09T10:46:35;15.20;99.90
34833;DHT22;55941;50.800;4.342;2023-04-09T10:49:20;15.40;99.90
34833;DHT22;55941;50.800;4.342;2023-04-09T10:52:04;15.50;99.90
34833;DHT22;55941;50.800;4.342;2023-04-09T10:59:53;16.10;99.90
34833;DHT22;55941;50.800;4.342;2023-04-09T11:05:32;16.20;99.90
34833;DHT22;55941;50.800;4.342;2023-04-09T11:08:14;16.20;99.90
34833;DHT22;55941;50.800;4.342;2023-04-09T11:10:41;16.40;99.90
34833;DHT22;55941;50.800;4.342;2023-04-09T11:13:16;16.60;99.90
34833;DHT22;55941;50.800;4.342;2023-04-09T11:15:43;16.70;99.90
34833;DHT22;55941;50.800;4.342;2023-04-09T11:18:22;16.80;99.90
34833;DHT22;55941;50.800;4.342;2023-04-09T11:20:48;16.80;99.90
34833;DHT22;55941;50.800;4.342;2023-04-09T11:23:16;17.10;99.90
34833;DHT22;55941;50.800;4.342;2023-04-09T11:25:42;17.30;99.90
34833;DHT22;55941;50.800;4.342;2023-04-09T11:28:13;17.50;99.90
34833;DHT22;55941;50.800;4.342;2023-04-09T11:30:38;17.70;99.90
34833;DHT22;55941;50.800;4.342;2023-04-09T11:33:05;17.80;99.90
34833;DHT22;55941;50.800;4.342;2023-04-09T11:35:33;17.80;99.90
34833;DHT22;55941;50.800;4.342;2023-04-09T11:37:59;17.90;99.90
34833;DHT22;55941;50.800;4.342;2023-04-09T11:40:26;18.20;99.90
34833;DHT22;55941;50.800;4.342;2023-04-09T11:42:54;18.50;99.90
34833;DHT22;55941;50.800;4.342;2023-04-09T11:45:23;18.40;99.90
34833;DHT22;55941;50.800;4.342;2023-04-09T11:47:49;18.20;99.90
34833;DHT22;55941;50.800;4.342;2023-04-09T11:50:15;18.30;99.90
34833;DHT22;55941;50.800;4.342;2023-04-09T11:52:42;18.80;99.90
34833;DHT22;55941;50.800;4.342;2023-04-09T11:55:09;19.70;99.90
34833;DHT22;55941;50.800;4.342;2023-04-09T11:57:44;20.50;99.90
34833;DHT22;55941;50.800;4.342;2023-04-09T12:00:11;21.30;98.10
34833;DHT22;55941;50.800;4.342;2023-04-09T12:02:44;21.50;97.60
34833;DHT22;55941;50.800;4.342;2023-04-09T12:05:43;21.60;97.40
34833;DHT22;55941;50.800;4.342;2023-04-09T12:08:09;21.60;96.30
34833;DHT22;55941;50.800;4.342;2023-04-09T12:10:37;21.10;96.60
34833;DHT22;55941;50.800;4.342;2023-04-09T12:13:05;21.30;95.50
34833;DHT22;55941;50.800;4.342;2023-04-09T12:15:33;21.00;95.60
34833;DHT22;55941;50.800;4.342;2023-04-09T12:17:59;20.60;95.80
34833;DHT22;55941;50.800;4.342;2023-04-09T12:20:35;20.80;95.80
34833;DHT22;55941;50.800;4.342;2023-04-09T12:23:03;21.10;95.50
34833;DHT22;55941;50.800;4.342;2023-04-09T12:25:33;21.50;94.50
34833;DHT22;55941;50.800;4.342;2023-04-09T12:28:01;21.90;94.10
34833;DHT22;55941;50.800;4.342;2023-04-09T12:30:27;22.10;94.20
34833;DHT22;55941;50.800;4.342;2023-04-09T12:32:55;23.00;92.90
34833;DHT22;55941;50.800;4.342;2023-04-09T12:35:21;24.00;91.00
34833;DHT22;55941;50.800;4.342;2023-04-09T12:37:48;24.50;89.60
34833;DHT22;55941;50.800;4.342;2023-04-09T12:40:14;25.00;84.40
34833;DHT22;55941;50.800;4.342;2023-04-09T12:42:41;25.00;82.60
34833;DHT22;55941;50.800;4.342;2023-04-09T12:45:08;25.30;83.50
34833;DHT22;55941;50.800;4.342;2023-04-09T12:47:35;25.60;79.90
34833;DHT22;55941;50.800;4.342;2023-04-09T12:50:02;26.00;78.20
34833;DHT22;55941;50.800;4.342;2023-04-09T12:52:28;26.00;75.80
34833;DHT22;55941;50.800;4.342;2023-04-09T12:54:54;25.30;75.00
34833;DHT22;55941;50.800;4.342;2023-04-09T12:57:20;24.70;76.00
34833;DHT22;55941;50.800;4.342;2023-04-09T12:59:45;23.50;78.70
34833;DHT22;55941;50.800;4.342;2023-04-09T13:02:11;22.90;81.70
34833;DHT22;55941;50.800;4.342;2023-04-09T13:04:37;23.20;83.10
34833;DHT22;55941;50.800;4.342;2023-04-09T13:07:03;23.40;80.60
34833;DHT22;55941;50.800;4.342;2023-04-09T13:09:29;24.00;79.30
34833;DHT22;55941;50.800;4.342;2023-04-09T13:11:55;24.70;78.00
34833;DHT22;55941;50.800;4.342;2023-04-09T13:14:21;24.20;77.60
34833;DHT22;55941;50.800;4.342;2023-04-09T13:16:47;24.20;76.50
34833;DHT22;55941;50.800;4.342;2023-04-09T13:19:12;23.60;77.40
34833;DHT22;55941;50.800;4.342;2023-04-09T13:21:39;23.30;77.20
34833;DHT22;55941;50.800;4.342;2023-04-09T13:24:05;22.80;75.60
34833;DHT22;55941;50.800;4.342;2023-04-09T13:26:31;22.50;76.10
34833;DHT22;55941;50.800;4.342;2023-04-09T13:28:57;22.00;77.70
34833;DHT22;55941;50.800;4.342;2023-04-09T13:31:23;21.90;78.90
34833;DHT22;55941;50.800;4.342;2023-04-09T13:33:49;22.40;78.90
34833;DHT22;55941;50.800;4.342;2023-04-09T13:36:15;22.90;77.30
34833;DHT22;55941;50.800;4.342;2023-04-09T13:38:40;23.10;77.70
34833;DHT22;55941;50.800;4.342;2023-04-09T13:41:06;23.60;76.70
34833;DHT22;55941;50.800;4.342;2023-04-09T13:43:32;24.00;75.30
34833;DHT22;55941;50.800;4.342;2023-04-09T13:45:58;25.00;71.70
34833;DHT22;55941;50.800;4.342;2023-04-09T13:48:24;25.70;72.50
34833;DHT22;55941;50.800;4.342;2023-04-09T13:50:50;26.20;67.90
34833;DHT22;55941;50.800;4.342;2023-04-09T13:53:16;26.40;66.00
34833;DHT22;55941;50.800;4.342;2023-04-09T13:55:42;26.10;64.70
34833;DHT22;55941;50.800;4.342;2023-04-09T13:58:08;25.70;66.70
34833;DHT22;55941;50.800;4.342;2023-04-09T14:00:34;25.50;65.90
34833;DHT22;55941;50.800;4.342;2023-04-09T14:03:00;25.70;67.10
34833;DHT22;55941;50.800;4.342;2023-04-09T14:05:28;26.50;65.30
34833;DHT22;55941;50.800;4.342;2023-04-09T14:07:53;26.90;65.10
34833;DHT22;55941;50.800;4.342;2023-04-09T14:10:19;27.20;61.00
34833;DHT22;55941;50.800;4.342;2023-04-09T14:12:45;27.50;59.10
34833;DHT22;55941;50.800;4.342;2023-04-09T14:15:11;27.90;57.10
34833;DHT22;55941;50.800;4.342;2023-04-09T14:17:38;27.70;56.70
34833;DHT22;55941;50.800;4.342;2023-04-09T14:20:04;28.10;54.20
34833;DHT22;55941;50.800;4.342;2023-04-09T14:22:29;27.80;54.70
34833;DHT22;55941;50.800;4.342;2023-04-09T14:24:55;28.10;56.40
34833;DHT22;55941;50.800;4.342;2023-04-09T14:27:21;28.30;54.20
34833;DHT22;55941;50.800;4.342;2023-04-09T14:29:47;28.40;53.90
34833;DHT22;55941;50.800;4.342;2023-04-09T14:32:12;29.00;53.10
34833;DHT22;55941;50.800;4.342;2023-04-09T14:34:38;28.50;50.80
34833;DHT22;55941;50.800;4.342;2023-04-09T14:37:03;28.00;50.90
34833;DHT22;55941;50.800;4.342;2023-04-09T14:39:29;28.10;51.30
34833;DHT22;55941;50.800;4.342;2023-04-09T14:41:55;28.10;49.60
34833;DHT22;55941;50.800;4.342;2023-04-09T14:44:21;28.10;49.20
34833;DHT22;55941;50.800;4.342;2023-04-09T14:46:50;28.50;46.90
34833;DHT22;55941;50.800;4.342;2023-04-09T14:49:17;28.70;48.30
34833;DHT22;55941;50.800;4.342;2023-04-09T14:51:42;28.40;49.00
34833;DHT22;55941;50.800;4.342;2023-04-09T14:54:08;28.80;48.40
34833;DHT22;55941;50.800;4.342;2023-04-09T14:56:34;29.10;47.50
34833;DHT22;55941;50.800;4.342;2023-04-09T14:58:59;29.10;45.60
34833;DHT22;55941;50.800;4.342;2023-04-09T15:01:25;29.00;45.20
34833;DHT22;55941;50.800;4.342;2023-04-09T15:03:53;28.80;44.90
34833;DHT22;55941;50.800;4.342;2023-04-09T15:06:19;29.00;45.20
34833;DHT22;55941;50.800;4.342;2023-04-09T15:08:45;29.00;46.50
34833;DHT22;55941;50.800;4.342;2023-04-09T15:11:14;29.00;47.10
34833;DHT22;55941;50.800;4.342;2023-04-09T15:13:40;29.10;48.30
34833;DHT22;55941;50.800;4.342;2023-04-09T15:16:06;28.80;46.40
34833;DHT22;55941;50.800;4.342;2023-04-09T15:18:32;27.50;48.00
34833;DHT22;55941;50.800;4.342;2023-04-09T15:20:59;26.50;49.50
34833;DHT22;55941;50.800;4.342;2023-04-09T15:23:25;25.70;50.10
34833;DHT22;55941;50.800;4.342;2023-04-09T15:25:50;26.00;50.50
34833;DHT22;55941;50.800;4.342;2023-04-09T15:28:16;26.90;50.60
34833;DHT22;55941;50.800;4.342;2023-04-09T15:30:41;27.90;48.50
34833;DHT22;55941;50.800;4.342;2023-04-09T15:33:07;28.00;48.10
34833;DHT22;55941;50.800;4.342;2023-04-09T15:35:33;27.50;48.10
34833;DHT22;55941;50.800;4.342;2023-04-09T15:37:59;27.50;47.20
34833;DHT22;55941;50.800;4.342;2023-04-09T15:40:25;27.80;46.30
34833;DHT22;55941;50.800;4.342;2023-04-09T15:42:53;28.20;45.60
34833;DHT22;55941;50.800;4.342;2023-04-09T15:45:19;28.10;46.50
34833;DHT22;55941;50.800;4.342;2023-04-09T15:47:45;28.20;47.00
34833;DHT22;55941;50.800;4.342;2023-04-09T15:50:12;28.50;46.50
34833;DHT22;55941;50.800;4.342;2023-04-09T15:52:38;28.00;47.60
34833;DHT22;55941;50.800;4.342;2023-04-09T15:55:04;28.40;47.80
34833;DHT22;55941;50.800;4.342;2023-04-09T15:57:30;28.90;46.80
34833;DHT22;55941;50.800;4.342;2023-04-09T15:59:56;28.60;46.20